Brighton, MI

6:52 AM EDT on July 06, 2015 (GMT -0400)
Rush Lake | | Change Station
CLOSE
Current Station
Personal Weather Station
Location: Pinckney, MI
Elevation: 880 ft
Nearby Weather Stations

Elev 880 ft 42.48 °N, 83.87 °W | Updated 1 second ago

Clear
Clear
54.1 °F
Feels Like 54.1 °F
N
0.0
Wind Variable Wind from South
Gusts 0.0 mph

Today
High -- | Low -- °F
--% Chance of Precip.
Yesterday
High -- | Low -- °F
Precip. -- in
6:04 AM 9:15 PM
Waning Gibbous, 76% visible
Pressure 30.06 in
Visibility 2.5 miles
Clouds
Dew Point 53 °F
Humidity 97%
Rainfall 0.00 in
Snow Depth Not available.
UV Not available.
Pollen 3.90 out of 12
Air Quality Not available.
Flu Activity Not available.
METAR KOZW 061035Z AUTO 12003KT 2 1/2SM BR 14/14 A3006 RMK AO2 SKY OBSCURED T01430140

More Conditions Fewer Conditions

Pressure 30.06 in
Visibility 2.5 miles
Clouds
Dew Point 53 °F
Humidity 97%
Rainfall 0.00 in
Snow Depth Not available.
UV Not available.
Pollen 3.90 out of 12
Air Quality Not available.
Flu Activity Not available.
METAR KOZW 061035Z AUTO 12003KT 2 1/2SM BR 14/14 A3006 RMK AO2 SKY OBSCURED T01430140

More Conditions Fewer Conditions

10-Day Weather Forecast

×

Almanac

Astronomy

Jul. 06, 2015 Rise Set
Actual Time
Civil Twilight
Nautical Twilight
Astronomical Twilight
Moon
Length of Visible Light
Length of Day
Tomorrow will be .
, % of the Moon is Illuminated

Today's Extremes

State Highs State Lows

Community

WunderPhotos

Upload Photos

1,835,531 photos uploaded!

WunderBlogs® & News

Nearby

Air Quality

  Air Quality AQ Index Pollutant
Not available.

Snow Depth

Station Depth Elevation

Earthquake Activity

City Distance Mag. Time & Date
Minimum magnitude displayed is 2.5.

Coastal Water Temperatures

Place Temperature

Stations

Nearby Weather Stations

Station Location Temp. Windchill Dew Point Humidity Wind Precip. Elev Updated Type